sensor_id;sensor_type;location;lat;lon;timestamp;pressure;altitude;pressure_sealevel;temperature;humidity
27358;BME280;14831;50.474;7.616;2023-07-20T00:00:57;98050;;;15.5;74.2
27358;BME280;14831;50.474;7.616;2023-07-20T00:05:57;98050;;;15.5;74.3
27358;BME280;14831;50.474;7.616;2023-07-20T00:10:57;98050;;;15.5;74.4
27358;BME280;14831;50.474;7.616;2023-07-20T00:15:57;98040;;;15.5;74.6
27358;BME280;14831;50.474;7.616;2023-07-20T00:20:57;98040;;;15.6;74.7
27358;BME280;14831;50.474;7.616;2023-07-20T00:25:57;98040;;;15.7;74.3
27358;BME280;14831;50.474;7.616;2023-07-20T00:30:58;98040;;;15.6;74.7
27358;BME280;14831;50.474;7.616;2023-07-20T00:35:57;98040;;;15.5;74.6
27358;BME280;14831;50.474;7.616;2023-07-20T00:40:57;98040;;;15.6;74.5
27358;BME280;14831;50.474;7.616;2023-07-20T00:45:57;98030;;;15.7;74.8
27358;BME280;14831;50.474;7.616;2023-07-20T00:50:57;98030;;;15.8;75.3
27358;BME280;14831;50.474;7.616;2023-07-20T00:55:57;98030;;;15.8;75.7
27358;BME280;14831;50.474;7.616;2023-07-20T01:00:57;98050;;;15.9;75.2
27358;BME280;14831;50.474;7.616;2023-07-20T01:05:59;98050;;;15.8;75.3
27358;BME280;14831;50.474;7.616;2023-07-20T01:10:58;98060;;;15.8;75.5
27358;BME280;14831;50.474;7.616;2023-07-20T01:15:57;98070;;;15.4;80.3
27358;BME280;14831;50.474;7.616;2023-07-20T01:20:59;98070;;;14.9;86.0
27358;BME280;14831;50.474;7.616;2023-07-20T01:26:02;98070;;;14.4;89.6
27358;BME280;14831;50.474;7.616;2023-07-20T01:30:59;98060;;;14.3;90.8
27358;BME280;14831;50.474;7.616;2023-07-20T01:35:57;98060;;;14.2;91.3
27358;BME280;14831;50.474;7.616;2023-07-20T01:40:57;98040;;;14.2;91.7
27358;BME280;14831;50.474;7.616;2023-07-20T01:45:57;98050;;;14.3;92.1
27358;BME280;14831;50.474;7.616;2023-07-20T01:50:57;98050;;;14.2;92.6
27358;BME280;14831;50.474;7.616;2023-07-20T01:55:57;98050;;;14.2;93.0
27358;BME280;14831;50.474;7.616;2023-07-20T02:00:57;98040;;;14.2;93.0
27358;BME280;14831;50.474;7.616;2023-07-20T02:05:57;98040;;;14.2;93.7
27358;BME280;14831;50.474;7.616;2023-07-20T02:10:57;98040;;;14.1;93.2
27358;BME280;14831;50.474;7.616;2023-07-20T02:15:57;98040;;;14.1;92.5
27358;BME280;14831;50.474;7.616;2023-07-20T02:20:58;98030;;;14.1;92.4
27358;BME280;14831;50.474;7.616;2023-07-20T02:25:57;98040;;;14.1;92.7
27358;BME280;14831;50.474;7.616;2023-07-20T02:30:57;98030;;;14.2;92.6
27358;BME280;14831;50.474;7.616;2023-07-20T02:35:57;98030;;;14.2;92.5
27358;BME280;14831;50.474;7.616;2023-07-20T02:40:57;98030;;;14.2;92.5
27358;BME280;14831;50.474;7.616;2023-07-20T02:45:57;98030;;;14.2;92.8
27358;BME280;14831;50.474;7.616;2023-07-20T02:50:57;98030;;;14.2;92.5
27358;BME280;14831;50.474;7.616;2023-07-20T02:55:57;98030;;;14.2;92.1
27358;BME280;14831;50.474;7.616;2023-07-20T03:00:57;98040;;;14.2;92.4
27358;BME280;14831;50.474;7.616;2023-07-20T03:05:57;98040;;;14.1;92.3
27358;BME280;14831;50.474;7.616;2023-07-20T03:10:57;98040;;;14.1;92.5
27358;BME280;14831;50.474;7.616;2023-07-20T03:15:57;98030;;;14.2;93.3
27358;BME280;14831;50.474;7.616;2023-07-20T03:20:57;98040;;;14.0;92.7
27358;BME280;14831;50.474;7.616;2023-07-20T03:25:57;98040;;;13.9;92.6
27358;BME280;14831;50.474;7.616;2023-07-20T03:30:57;98040;;;13.8;92.7
27358;BME280;14831;50.474;7.616;2023-07-20T03:35:57;98050;;;13.8;92.7
27358;BME280;14831;50.474;7.616;2023-07-20T03:40:58;98050;;;13.7;93.2
27358;BME280;14831;50.474;7.616;2023-07-20T03:45:57;98050;;;13.7;94.4
27358;BME280;14831;50.474;7.616;2023-07-20T03:50:57;98050;;;13.6;93.8
27358;BME280;14831;50.474;7.616;2023-07-20T03:55:57;98050;;;13.6;94.0
27358;BME280;14831;50.474;7.616;2023-07-20T04:00:57;98040;;;13.5;93.8
27358;BME280;14831;50.474;7.616;2023-07-20T04:05:57;98060;;;13.5;93.7
27358;BME280;14831;50.474;7.616;2023-07-20T04:10:57;98050;;;13.5;93.7
27358;BME280;14831;50.474;7.616;2023-07-20T04:15:57;98050;;;13.5;93.6
27358;BME280;14831;50.474;7.616;2023-07-20T04:20:57;98050;;;13.6;93.7
27358;BME280;14831;50.474;7.616;2023-07-20T04:25:57;98040;;;13.7;93.3
27358;BME280;14831;50.474;7.616;2023-07-20T04:31:08;98050;;;13.8;93.1
27358;BME280;14831;50.474;7.616;2023-07-20T04:35:57;98050;;;13.9;93.2
27358;BME280;14831;50.474;7.616;2023-07-20T04:40:57;98050;;;13.9;93.0
27358;BME280;14831;50.474;7.616;2023-07-20T04:45:57;98050;;;13.9;93.3
27358;BME280;14831;50.474;7.616;2023-07-20T04:50:57;98050;;;14.0;92.7
27358;BME280;14831;50.474;7.616;2023-07-20T04:55:57;98060;;;14.1;92.9
27358;BME280;14831;50.474;7.616;2023-07-20T05:00:57;98070;;;14.2;92.6
27358;BME280;14831;50.474;7.616;2023-07-20T05:05:57;98070;;;14.3;92.4
27358;BME280;14831;50.474;7.616;2023-07-20T05:10:57;98060;;;14.4;92.3
27358;BME280;14831;50.474;7.616;2023-07-20T05:15:57;98070;;;14.5;92.4
27358;BME280;14831;50.474;7.616;2023-07-20T05:20:57;98070;;;14.5;92.2
27358;BME280;14831;50.474;7.616;2023-07-20T05:25:57;98060;;;14.6;91.7
27358;BME280;14831;50.474;7.616;2023-07-20T05:30:57;98060;;;14.7;91.0
27358;BME280;14831;50.474;7.616;2023-07-20T05:35:57;98070;;;14.7;90.8
27358;BME280;14831;50.474;7.616;2023-07-20T05:40:59;98060;;;14.7;90.7
27358;BME280;14831;50.474;7.616;2023-07-20T05:45:57;98060;;;14.8;88.9
27358;BME280;14831;50.474;7.616;2023-07-20T05:50:57;98060;;;14.8;88.0
27358;BME280;14831;50.474;7.616;2023-07-20T05:55:57;98070;;;15.1;87.0
27358;BME280;14831;50.474;7.616;2023-07-20T06:00:57;98070;;;15.1;86.8
27358;BME280;14831;50.474;7.616;2023-07-20T06:05:58;98070;;;15.0;87.4
27358;BME280;14831;50.474;7.616;2023-07-20T06:10:57;98080;;;14.9;86.9
27358;BME280;14831;50.474;7.616;2023-07-20T06:15:57;98090;;;15.3;86.3
27358;BME280;14831;50.474;7.616;2023-07-20T06:20:57;98090;;;15.2;86.2
27358;BME280;14831;50.474;7.616;2023-07-20T06:25:57;98100;;;15.3;86.9
27358;BME280;14831;50.474;7.616;2023-07-20T06:31:00;98090;;;15.1;87.1
27358;BME280;14831;50.474;7.616;2023-07-20T06:35:57;98090;;;15.2;86.3
27358;BME280;14831;50.474;7.616;2023-07-20T06:40:57;98100;;;15.6;85.8
27358;BME280;14831;50.474;7.616;2023-07-20T06:45:58;98110;;;15.5;84.5
27358;BME280;14831;50.474;7.616;2023-07-20T06:50:57;98100;;;15.4;85.3
27358;BME280;14831;50.474;7.616;2023-07-20T06:55:57;98100;;;15.4;84.2
27358;BME280;14831;50.474;7.616;2023-07-20T07:00:57;98100;;;15.4;84.3
27358;BME280;14831;50.474;7.616;2023-07-20T07:05:57;98100;;;15.5;84.4
27358;BME280;14831;50.474;7.616;2023-07-20T07:10:57;98110;;;15.6;84.1
27358;BME280;14831;50.474;7.616;2023-07-20T07:15:57;98110;;;15.6;84.4
27358;BME280;14831;50.474;7.616;2023-07-20T07:20:57;98110;;;15.8;84.3
27358;BME280;14831;50.474;7.616;2023-07-20T07:25:57;98110;;;16.2;81.9
27358;BME280;14831;50.474;7.616;2023-07-20T07:30:57;98110;;;16.2;81.0
27358;BME280;14831;50.474;7.616;2023-07-20T07:35:57;98110;;;16.1;81.7
27358;BME280;14831;50.474;7.616;2023-07-20T07:40:57;98120;;;15.9;80.9
27358;BME280;14831;50.474;7.616;2023-07-20T07:45:57;98130;;;16.5;79.2
27358;BME280;14831;50.474;7.616;2023-07-20T07:50:57;98130;;;16.4;77.1
27358;BME280;14831;50.474;7.616;2023-07-20T07:55:57;98140;;;16.5;80.1
27358;BME280;14831;50.474;7.616;2023-07-20T08:00:57;98130;;;16.8;76.8
27358;BME280;14831;50.474;7.616;2023-07-20T08:05:57;98140;;;16.9;74.7
27358;BME280;14831;50.474;7.616;2023-07-20T08:10:57;98150;;;16.6;74.9
27358;BME280;14831;50.474;7.616;2023-07-20T08:15:57;98160;;;16.7;75.1
27358;BME280;14831;50.474;7.616;2023-07-20T08:20:57;98160;;;16.5;75.2
27358;BME280;14831;50.474;7.616;2023-07-20T08:25:57;98160;;;17.2;74.0
27358;BME280;14831;50.474;7.616;2023-07-20T08:30:57;98150;;;17.0;74.9
27358;BME280;14831;50.474;7.616;2023-07-20T08:35:57;98160;;;17.0;71.9
27358;BME280;14831;50.474;7.616;2023-07-20T08:40:57;98160;;;16.8;73.8
27358;BME280;14831;50.474;7.616;2023-07-20T08:45:57;98160;;;16.8;73.5
27358;BME280;14831;50.474;7.616;2023-07-20T08:50:57;98170;;;16.6;73.1
27358;BME280;14831;50.474;7.616;2023-07-20T08:55:57;98170;;;17.4;71.0
27358;BME280;14831;50.474;7.616;2023-07-20T09:00:57;98160;;;18.3;68.3
27358;BME280;14831;50.474;7.616;2023-07-20T09:05:57;98170;;;17.8;67.5
27358;BME280;14831;50.474;7.616;2023-07-20T09:10:57;98160;;;17.7;67.0
27358;BME280;14831;50.474;7.616;2023-07-20T09:15:57;98170;;;18.4;66.0
27358;BME280;14831;50.474;7.616;2023-07-20T09:20:57;98170;;;18.2;65.7
27358;BME280;14831;50.474;7.616;2023-07-20T09:25:57;98150;;;18.1;64.8
27358;BME280;14831;50.474;7.616;2023-07-20T09:30:57;98160;;;18.9;58.8
27358;BME280;14831;50.474;7.616;2023-07-20T09:36:01;98160;;;18.8;58.9
27358;BME280;14831;50.474;7.616;2023-07-20T09:40:57;98160;;;19.0;58.9
27358;BME280;14831;50.474;7.616;2023-07-20T09:45:57;98160;;;18.4;58.2
27358;BME280;14831;50.474;7.616;2023-07-20T09:50:57;98160;;;20.0;57.1
27358;BME280;14831;50.474;7.616;2023-07-20T09:55:57;98170;;;20.3;60.7
27358;BME280;14831;50.474;7.616;2023-07-20T10:00:57;98150;;;19.3;58.6
27358;BME280;14831;50.474;7.616;2023-07-20T10:05:57;98160;;;19.9;55.0
27358;BME280;14831;50.474;7.616;2023-07-20T10:10:57;98150;;;20.2;56.5
27358;BME280;14831;50.474;7.616;2023-07-20T10:15:58;98160;;;19.8;57.6
27358;BME280;14831;50.474;7.616;2023-07-20T10:20:58;98160;;;19.3;58.7
27358;BME280;14831;50.474;7.616;2023-07-20T10:25:57;98150;;;19.8;56.3
27358;BME280;14831;50.474;7.616;2023-07-20T10:30:57;98140;;;19.8;57.2
27358;BME280;14831;50.474;7.616;2023-07-20T10:35:58;98140;;;20.1;57.6
27358;BME280;14831;50.474;7.616;2023-07-20T10:40:57;98140;;;20.3;54.7
27358;BME280;14831;50.474;7.616;2023-07-20T10:45:57;98130;;;19.9;52.7
27358;BME280;14831;50.474;7.616;2023-07-20T10:51:13;98130;;;20.0;54.0
27358;BME280;14831;50.474;7.616;2023-07-20T10:56:05;98130;;;20.4;53.5
27358;BME280;14831;50.474;7.616;2023-07-20T11:00:57;98120;;;21.7;51.9
27358;BME280;14831;50.474;7.616;2023-07-20T11:05:57;98120;;;21.3;50.0
27358;BME280;14831;50.474;7.616;2023-07-20T11:11:20;98120;;;20.9;48.9
27358;BME280;14831;50.474;7.616;2023-07-20T11:16:04;98110;;;20.7;51.2
27358;BME280;14831;50.474;7.616;2023-07-20T11:20:57;98110;;;20.3;50.0
27358;BME280;14831;50.474;7.616;2023-07-20T11:25:57;98110;;;20.5;47.8
27358;BME280;14831;50.474;7.616;2023-07-20T11:30:57;98100;;;20.2;48.0
27358;BME280;14831;50.474;7.616;2023-07-20T11:35:57;98100;;;21.5;46.4
27358;BME280;14831;50.474;7.616;2023-07-20T11:40:57;98100;;;21.6;45.5
27358;BME280;14831;50.474;7.616;2023-07-20T11:45:57;98100;;;21.4;46.3
27358;BME280;14831;50.474;7.616;2023-07-20T11:50:57;98100;;;20.9;45.9
27358;BME280;14831;50.474;7.616;2023-07-20T11:55:57;98100;;;21.2;44.5
27358;BME280;14831;50.474;7.616;2023-07-20T12:00:57;98100;;;21.3;45.7
27358;BME280;14831;50.474;7.616;2023-07-20T12:05:57;98100;;;21.0;45.6
27358;BME280;14831;50.474;7.616;2023-07-20T12:10:57;98090;;;20.9;46.6
27358;BME280;14831;50.474;7.616;2023-07-20T12:15:57;98100;;;21.1;47.5
27358;BME280;14831;50.474;7.616;2023-07-20T12:20:58;98100;;;20.8;46.0
27358;BME280;14831;50.474;7.616;2023-07-20T12:25:57;98090;;;20.7;46.3
27358;BME280;14831;50.474;7.616;2023-07-20T12:30:57;98090;;;20.6;49.0
27358;BME280;14831;50.474;7.616;2023-07-20T12:35:57;98100;;;20.7;49.1
27358;BME280;14831;50.474;7.616;2023-07-20T12:40:57;98100;;;21.3;48.0
27358;BME280;14831;50.474;7.616;2023-07-20T12:45:57;98090;;;21.7;46.6
27358;BME280;14831;50.474;7.616;2023-07-20T12:50:57;98090;;;21.6;46.2
27358;BME280;14831;50.474;7.616;2023-07-20T12:55:57;98080;;;21.7;46.9
27358;BME280;14831;50.474;7.616;2023-07-20T13:00:57;98080;;;21.6;46.6
27358;BME280;14831;50.474;7.616;2023-07-20T13:05:58;98080;;;21.5;47.1
27358;BME280;14831;50.474;7.616;2023-07-20T13:10:57;98080;;;21.3;47.2
27358;BME280;14831;50.474;7.616;2023-07-20T13:15:57;98080;;;21.2;48.0
27358;BME280;14831;50.474;7.616;2023-07-20T13:20:57;98090;;;20.9;49.0
27358;BME280;14831;50.474;7.616;2023-07-20T13:25:57;98090;;;20.7;47.3
27358;BME280;14831;50.474;7.616;2023-07-20T13:30:57;98080;;;20.7;48.3
27358;BME280;14831;50.474;7.616;2023-07-20T13:35:57;98080;;;20.9;48.3
27358;BME280;14831;50.474;7.616;2023-07-20T13:40:57;98070;;;21.1;48.0
27358;BME280;14831;50.474;7.616;2023-07-20T13:45:57;98060;;;21.4;47.1
27358;BME280;14831;50.474;7.616;2023-07-20T13:50:57;98060;;;21.7;48.9
27358;BME280;14831;50.474;7.616;2023-07-20T13:55:57;98060;;;21.6;49.7
27358;BME280;14831;50.474;7.616;2023-07-20T14:00:57;98060;;;21.3;46.7
27358;BME280;14831;50.474;7.616;2023-07-20T14:05:57;98050;;;21.6;46.4
27358;BME280;14831;50.474;7.616;2023-07-20T14:10:57;98050;;;21.3;47.6
27358;BME280;14831;50.474;7.616;2023-07-20T14:15:57;98040;;;21.9;48.3
27358;BME280;14831;50.474;7.616;2023-07-20T14:20:57;98050;;;21.8;44.4
27358;BME280;14831;50.474;7.616;2023-07-20T14:25:57;98030;;;21.7;46.5
27358;BME280;14831;50.474;7.616;2023-07-20T14:30:57;98030;;;21.8;45.2
27358;BME280;14831;50.474;7.616;2023-07-20T14:35:57;98040;;;22.2;42.4
27358;BME280;14831;50.474;7.616;2023-07-20T14:40:57;98040;;;21.7;44.8
27358;BME280;14831;50.474;7.616;2023-07-20T14:45:57;98030;;;21.7;44.6
27358;BME280;14831;50.474;7.616;2023-07-20T14:50:57;98030;;;22.1;42.5
27358;BME280;14831;50.474;7.616;2023-07-20T14:55:58;98020;;;21.8;44.3
27358;BME280;14831;50.474;7.616;2023-07-20T15:00:57;98030;;;21.5;44.0
27358;BME280;14831;50.474;7.616;2023-07-20T15:05:57;98020;;;21.5;44.7
27358;BME280;14831;50.474;7.616;2023-07-20T15:10:57;98010;;;21.6;44.1
27358;BME280;14831;50.474;7.616;2023-07-20T15:15:57;98010;;;21.2;47.3
27358;BME280;14831;50.474;7.616;2023-07-20T15:20:57;98010;;;21.7;46.5
27358;BME280;14831;50.474;7.616;2023-07-20T15:25:57;98000;;;21.8;46.1
27358;BME280;14831;50.474;7.616;2023-07-20T15:30:59;98000;;;21.2;44.9
27358;BME280;14831;50.474;7.616;2023-07-20T15:35:57;98000;;;21.5;45.8
27358;BME280;14831;50.474;7.616;2023-07-20T15:40:57;98000;;;21.6;46.2
27358;BME280;14831;50.474;7.616;2023-07-20T15:46:01;97990;;;21.3;46.0
27358;BME280;14831;50.474;7.616;2023-07-20T15:50:57;97990;;;20.8;47.0
27358;BME280;14831;50.474;7.616;2023-07-20T15:55:57;97990;;;21.1;46.3
27358;BME280;14831;50.474;7.616;2023-07-20T16:00:57;97980;;;20.9;49.3
27358;BME280;14831;50.474;7.616;2023-07-20T16:05:57;97980;;;21.0;49.7
27358;BME280;14831;50.474;7.616;2023-07-20T16:10:57;97980;;;20.8;49.3
27358;BME280;14831;50.474;7.616;2023-07-20T16:15:57;97970;;;21.0;49.0
27358;BME280;14831;50.474;7.616;2023-07-20T16:20:57;97980;;;20.9;49.3
27358;BME280;14831;50.474;7.616;2023-07-20T16:25:57;97970;;;20.8;49.0
27358;BME280;14831;50.474;7.616;2023-07-20T16:30:57;97970;;;20.9;49.9
27358;BME280;14831;50.474;7.616;2023-07-20T16:35:57;97960;;;21.2;49.0
27358;BME280;14831;50.474;7.616;2023-07-20T16:40:57;97950;;;20.9;48.5
27358;BME280;14831;50.474;7.616;2023-07-20T16:45:58;97950;;;20.7;47.4
27358;BME280;14831;50.474;7.616;2023-07-20T16:50:58;97940;;;21.0;47.6
27358;BME280;14831;50.474;7.616;2023-07-20T16:55:57;97950;;;21.1;48.0
27358;BME280;14831;50.474;7.616;2023-07-20T17:00:59;97940;;;21.0;48.0
27358;BME280;14831;50.474;7.616;2023-07-20T17:05:57;97940;;;20.6;48.9
27358;BME280;14831;50.474;7.616;2023-07-20T17:10:57;97950;;;20.5;48.9
27358;BME280;14831;50.474;7.616;2023-07-20T17:15:57;97930;;;20.5;49.1
27358;BME280;14831;50.474;7.616;2023-07-20T17:20:57;97930;;;20.3;49.8
27358;BME280;14831;50.474;7.616;2023-07-20T17:25:57;97950;;;20.5;47.9
27358;BME280;14831;50.474;7.616;2023-07-20T17:30:57;97940;;;20.4;49.1
27358;BME280;14831;50.474;7.616;2023-07-20T17:35:57;97940;;;20.4;50.5
27358;BME280;14831;50.474;7.616;2023-07-20T17:40:57;97950;;;20.2;51.1
27358;BME280;14831;50.474;7.616;2023-07-20T17:45:57;97940;;;20.1;50.7
27358;BME280;14831;50.474;7.616;2023-07-20T17:50:57;97930;;;20.1;51.7
27358;BME280;14831;50.474;7.616;2023-07-20T17:55:57;97930;;;20.3;50.3
27358;BME280;14831;50.474;7.616;2023-07-20T18:00:57;97940;;;20.1;51.4
27358;BME280;14831;50.474;7.616;2023-07-20T18:06:02;97930;;;20.1;51.5
27358;BME280;14831;50.474;7.616;2023-07-20T18:11:01;97920;;;20.3;51.1
27358;BME280;14831;50.474;7.616;2023-07-20T18:15:57;97920;;;20.3;49.9
27358;BME280;14831;50.474;7.616;2023-07-20T18:20:57;97920;;;20.4;52.3
27358;BME280;14831;50.474;7.616;2023-07-20T18:25:57;97900;;;20.4;52.5
27358;BME280;14831;50.474;7.616;2023-07-20T18:30:57;97900;;;20.2;52.8
27358;BME280;14831;50.474;7.616;2023-07-20T18:35:57;97910;;;19.9;51.6
27358;BME280;14831;50.474;7.616;2023-07-20T18:40:57;97900;;;19.8;51.8
27358;BME280;14831;50.474;7.616;2023-07-20T18:45:57;97910;;;19.6;51.8
27358;BME280;14831;50.474;7.616;2023-07-20T18:50:57;97920;;;19.5;51.7
27358;BME280;14831;50.474;7.616;2023-07-20T18:55:57;97900;;;19.4;51.9
27358;BME280;14831;50.474;7.616;2023-07-20T19:00:57;97910;;;19.4;52.4
27358;BME280;14831;50.474;7.616;2023-07-20T19:05:57;97900;;;19.1;55.1
27358;BME280;14831;50.474;7.616;2023-07-20T19:10:58;97900;;;18.8;56.4
27358;BME280;14831;50.474;7.616;2023-07-20T19:15:57;97900;;;18.6;57.3
27358;BME280;14831;50.474;7.616;2023-07-20T19:20:58;97910;;;18.4;57.2
27358;BME280;14831;50.474;7.616;2023-07-20T19:25:57;97900;;;18.4;57.7
27358;BME280;14831;50.474;7.616;2023-07-20T19:30:57;97900;;;18.3;57.7
27358;BME280;14831;50.474;7.616;2023-07-20T19:35:57;97900;;;18.3;58.8
27358;BME280;14831;50.474;7.616;2023-07-20T19:40:57;97900;;;18.4;60.1
27358;BME280;14831;50.474;7.616;2023-07-20T19:45:57;97900;;;18.3;59.4
27358;BME280;14831;50.474;7.616;2023-07-20T19:50:57;97900;;;18.2;59.0
27358;BME280;14831;50.474;7.616;2023-07-20T19:55:58;97890;;;18.1;56.8
27358;BME280;14831;50.474;7.616;2023-07-20T20:00:57;97900;;;18.0;56.3
27358;BME280;14831;50.474;7.616;2023-07-20T20:05:57;97900;;;17.9;56.8
27358;BME280;14831;50.474;7.616;2023-07-20T20:10:57;97900;;;17.7;58.0
27358;BME280;14831;50.474;7.616;2023-07-20T20:15:57;97900;;;17.6;59.1
27358;BME280;14831;50.474;7.616;2023-07-20T20:20:57;97900;;;17.5;61.8
27358;BME280;14831;50.474;7.616;2023-07-20T20:25:57;97900;;;17.4;60.6
27358;BME280;14831;50.474;7.616;2023-07-20T20:30:57;97900;;;17.4;57.5
27358;BME280;14831;50.474;7.616;2023-07-20T20:35:59;97900;;;17.4;58.3
27358;BME280;14831;50.474;7.616;2023-07-20T20:40:57;97900;;;17.4;59.3
27358;BME280;14831;50.474;7.616;2023-07-20T20:46:00;97890;;;17.2;61.9
27358;BME280;14831;50.474;7.616;2023-07-20T20:50:58;97890;;;17.0;62.0
27358;BME280;14831;50.474;7.616;2023-07-20T20:55:57;97880;;;16.9;61.5
27358;BME280;14831;50.474;7.616;2023-07-20T21:00:58;97880;;;16.7;60.7
27358;BME280;14831;50.474;7.616;2023-07-20T21:05:57;97880;;;16.6;61.8
27358;BME280;14831;50.474;7.616;2023-07-20T21:10:57;97870;;;16.5;62.9
27358;BME280;14831;50.474;7.616;2023-07-20T21:15:57;97870;;;16.4;62.7
27358;BME280;14831;50.474;7.616;2023-07-20T21:20:57;97870;;;16.4;65.4
27358;BME280;14831;50.474;7.616;2023-07-20T21:25:57;97870;;;16.4;64.3
27358;BME280;14831;50.474;7.616;2023-07-20T21:31:00;97860;;;16.3;63.6
27358;BME280;14831;50.474;7.616;2023-07-20T21:35:57;97870;;;16.2;64.0
27358;BME280;14831;50.474;7.616;2023-07-20T21:40:57;97860;;;16.0;65.9
27358;BME280;14831;50.474;7.616;2023-07-20T21:45:57;97860;;;15.8;67.6
27358;BME280;14831;50.474;7.616;2023-07-20T21:50:57;97850;;;15.7;68.7
27358;BME280;14831;50.474;7.616;2023-07-20T21:55:57;97860;;;15.6;69.8
27358;BME280;14831;50.474;7.616;2023-07-20T22:00:57;97860;;;15.7;69.6
27358;BME280;14831;50.474;7.616;2023-07-20T22:05:57;97860;;;15.9;68.3
27358;BME280;14831;50.474;7.616;2023-07-20T22:11:03;97850;;;15.9;68.8
27358;BME280;14831;50.474;7.616;2023-07-20T22:15:57;97860;;;15.5;69.8
27358;BME280;14831;50.474;7.616;2023-07-20T22:20:57;97850;;;15.2;71.1
27358;BME280;14831;50.474;7.616;2023-07-20T22:25:57;97850;;;15.1;71.5
27358;BME280;14831;50.474;7.616;2023-07-20T22:30:57;97850;;;15.1;71.6
27358;BME280;14831;50.474;7.616;2023-07-20T22:35:57;97850;;;15.2;71.3
27358;BME280;14831;50.474;7.616;2023-07-20T22:40:57;97850;;;15.2;71.6
27358;BME280;14831;50.474;7.616;2023-07-20T22:45:57;97850;;;15.2;71.1
27358;BME280;14831;50.474;7.616;2023-07-20T22:50:57;97850;;;15.1;71.9
27358;BME280;14831;50.474;7.616;2023-07-20T22:55:57;97860;;;15.0;74.1
27358;BME280;14831;50.474;7.616;2023-07-20T23:00:57;97850;;;14.8;76.3
27358;BME280;14831;50.474;7.616;2023-07-20T23:05:57;97860;;;15.0;73.7
27358;BME280;14831;50.474;7.616;2023-07-20T23:10:57;97870;;;15.1;72.6
27358;BME280;14831;50.474;7.616;2023-07-20T23:15:57;97860;;;15.1;71.4
27358;BME280;14831;50.474;7.616;2023-07-20T23:20:57;97860;;;15.3;70.5
27358;BME280;14831;50.474;7.616;2023-07-20T23:25:57;97850;;;15.3;70.5
27358;BME280;14831;50.474;7.616;2023-07-20T23:30:57;97850;;;15.3;70.8
27358;BME280;14831;50.474;7.616;2023-07-20T23:35:57;97840;;;15.2;70.8
27358;BME280;14831;50.474;7.616;2023-07-20T23:40:57;97860;;;15.2;70.3
27358;BME280;14831;50.474;7.616;2023-07-20T23:45:57;97860;;;15.1;70.7
27358;BME280;14831;50.474;7.616;2023-07-20T23:50:57;97850;;;14.8;71.9
27358;BME280;14831;50.474;7.616;2023-07-20T23:55:57;97850;;;14.7;72.7
